sensor_id;sensor_type;location;lat;lon;timestamp;P1;durP1;ratioP1;P2;durP2;ratioP2
31308;SDS011;17936;52.446;10.840;2023-02-03T00:00:44;3.60;;;1.98;;
31308;SDS011;17936;52.446;10.840;2023-02-03T00:03:10;3.35;;;1.90;;
31308;SDS011;17936;52.446;10.840;2023-02-03T00:05:35;3.42;;;1.90;;
31308;SDS011;17936;52.446;10.840;2023-02-03T00:08:01;3.88;;;1.90;;
31308;SDS011;17936;52.446;10.840;2023-02-03T00:10:28;4.20;;;2.33;;
31308;SDS011;17936;52.446;10.840;2023-02-03T00:12:54;2.58;;;1.85;;
31308;SDS011;17936;52.446;10.840;2023-02-03T00:15:21;4.47;;;2.53;;
31308;SDS011;17936;52.446;10.840;2023-02-03T00:17:50;4.82;;;2.88;;
31308;SDS011;17936;52.446;10.840;2023-02-03T00:20:16;4.28;;;2.72;;
31308;SDS011;17936;52.446;10.840;2023-02-03T00:22:42;7.25;;;2.83;;
31308;SDS011;17936;52.446;10.840;2023-02-03T00:25:07;5.13;;;3.05;;
31308;SDS011;17936;52.446;10.840;2023-02-03T00:27:33;6.63;;;3.40;;
31308;SDS011;17936;52.446;10.840;2023-02-03T00:29:59;5.47;;;3.33;;
31308;SDS011;17936;52.446;10.840;2023-02-03T00:32:24;7.07;;;4.25;;
31308;SDS011;17936;52.446;10.840;2023-02-03T00:34:50;5.53;;;3.72;;
31308;SDS011;17936;52.446;10.840;2023-02-03T00:37:15;8.02;;;3.88;;
31308;SDS011;17936;52.446;10.840;2023-02-03T00:39:41;6.20;;;4.25;;
31308;SDS011;17936;52.446;10.840;2023-02-03T00:42:06;7.65;;;3.45;;
31308;SDS011;17936;52.446;10.840;2023-02-03T00:44:32;6.38;;;4.00;;
31308;SDS011;17936;52.446;10.840;2023-02-03T00:46:58;8.00;;;4.40;;
31308;SDS011;17936;52.446;10.840;2023-02-03T00:49:23;6.47;;;3.97;;
31308;SDS011;17936;52.446;10.840;2023-02-03T00:51:49;7.45;;;4.30;;
31308;SDS011;17936;52.446;10.840;2023-02-03T00:54:15;6.68;;;3.95;;
31308;SDS011;17936;52.446;10.840;2023-02-03T00:56:40;7.95;;;4.80;;
31308;SDS011;17936;52.446;10.840;2023-02-03T00:59:06;6.18;;;4.40;;
31308;SDS011;17936;52.446;10.840;2023-02-03T01:01:32;7.18;;;3.90;;
31308;SDS011;17936;52.446;10.840;2023-02-03T01:03:58;7.90;;;4.97;;
31308;SDS011;17936;52.446;10.840;2023-02-03T01:06:24;6.95;;;4.65;;
31308;SDS011;17936;52.446;10.840;2023-02-03T01:08:50;8.98;;;5.40;;
31308;SDS011;17936;52.446;10.840;2023-02-03T01:11:23;10.82;;;6.20;;
31308;SDS011;17936;52.446;10.840;2023-02-03T01:13:54;10.45;;;6.32;;
31308;SDS011;17936;52.446;10.840;2023-02-03T01:16:21;13.68;;;9.10;;
31308;SDS011;17936;52.446;10.840;2023-02-03T01:18:48;12.82;;;8.32;;
31308;SDS011;17936;52.446;10.840;2023-02-03T01:21:16;14.52;;;8.65;;
31308;SDS011;17936;52.446;10.840;2023-02-03T01:23:43;18.10;;;9.93;;
31308;SDS011;17936;52.446;10.840;2023-02-03T01:26:11;19.30;;;9.75;;
31308;SDS011;17936;52.446;10.840;2023-02-03T01:28:41;18.83;;;10.93;;
31308;SDS011;17936;52.446;10.840;2023-02-03T01:31:14;19.38;;;11.02;;
31308;SDS011;17936;52.446;10.840;2023-02-03T01:33:44;16.52;;;10.70;;
31308;SDS011;17936;52.446;10.840;2023-02-03T01:36:12;21.67;;;11.60;;
31308;SDS011;17936;52.446;10.840;2023-02-03T01:38:39;17.30;;;11.85;;
31308;SDS011;17936;52.446;10.840;2023-02-03T01:41:06;21.40;;;11.23;;
31308;SDS011;17936;52.446;10.840;2023-02-03T01:43:40;21.33;;;12.07;;
31308;SDS011;17936;52.446;10.840;2023-02-03T01:51:41;22.35;;;14.43;;
31308;SDS011;17936;52.446;10.840;2023-02-03T01:54:08;24.30;;;13.95;;
31308;SDS011;17936;52.446;10.840;2023-02-03T01:56:41;23.33;;;13.80;;
31308;SDS011;17936;52.446;10.840;2023-02-03T01:59:12;23.25;;;13.05;;
31308;SDS011;17936;52.446;10.840;2023-02-03T02:01:41;26.65;;;14.43;;
31308;SDS011;17936;52.446;10.840;2023-02-03T02:04:08;25.30;;;14.57;;
31308;SDS011;17936;52.446;10.840;2023-02-03T02:06:35;25.95;;;15.35;;
31308;SDS011;17936;52.446;10.840;2023-02-03T02:09:01;28.60;;;15.65;;
31308;SDS011;17936;52.446;10.840;2023-02-03T02:11:27;25.35;;;15.05;;
31308;SDS011;17936;52.446;10.840;2023-02-03T02:13:55;21.85;;;13.57;;
31308;SDS011;17936;52.446;10.840;2023-02-03T02:19:07;22.85;;;13.20;;
31308;SDS011;17936;52.446;10.840;2023-02-03T02:32:33;22.48;;;12.68;;
31308;SDS011;17936;52.446;10.840;2023-02-03T02:37:34;19.40;;;12.80;;
31308;SDS011;17936;52.446;10.840;2023-02-03T02:48:14;17.45;;;9.85;;
31308;SDS011;17936;52.446;10.840;2023-02-03T02:50:47;16.60;;;11.05;;
31308;SDS011;17936;52.446;10.840;2023-02-03T02:53:16;18.42;;;9.80;;
31308;SDS011;17936;52.446;10.840;2023-02-03T02:55:45;13.32;;;7.82;;
31308;SDS011;17936;52.446;10.840;2023-02-03T02:58:12;18.40;;;10.10;;
31308;SDS011;17936;52.446;10.840;2023-02-03T03:00:40;16.95;;;10.10;;
31308;SDS011;17936;52.446;10.840;2023-02-03T03:03:11;21.27;;;10.88;;
31308;SDS011;17936;52.446;10.840;2023-02-03T03:05:38;19.70;;;10.25;;
31308;SDS011;17936;52.446;10.840;2023-02-03T03:08:07;18.67;;;10.82;;
31308;SDS011;17936;52.446;10.840;2023-02-03T03:10:36;18.02;;;9.82;;
31308;SDS011;17936;52.446;10.840;2023-02-03T03:13:06;19.73;;;10.27;;
31308;SDS011;17936;52.446;10.840;2023-02-03T03:15:35;20.35;;;9.63;;
31308;SDS011;17936;52.446;10.840;2023-02-03T03:18:04;17.88;;;9.80;;
31308;SDS011;17936;52.446;10.840;2023-02-03T03:20:35;14.40;;;8.55;;
31308;SDS011;17936;52.446;10.840;2023-02-03T03:23:09;13.82;;;8.55;;
31308;SDS011;17936;52.446;10.840;2023-02-03T03:25:40;16.42;;;8.43;;
31308;SDS011;17936;52.446;10.840;2023-02-03T03:28:13;16.58;;;9.18;;
31308;SDS011;17936;52.446;10.840;2023-02-03T03:30:44;15.27;;;8.73;;
31308;SDS011;17936;52.446;10.840;2023-02-03T03:33:10;15.07;;;9.07;;
31308;SDS011;17936;52.446;10.840;2023-02-03T03:35:41;13.82;;;7.40;;
31308;SDS011;17936;52.446;10.840;2023-02-03T03:38:19;19.13;;;7.55;;
31308;SDS011;17936;52.446;10.840;2023-02-03T03:40:50;11.85;;;7.55;;
31308;SDS011;17936;52.446;10.840;2023-02-03T03:43:19;12.93;;;7.38;;
31308;SDS011;17936;52.446;10.840;2023-02-03T03:45:56;15.07;;;7.47;;
31308;SDS011;17936;52.446;10.840;2023-02-03T03:51:01;14.57;;;7.13;;
31308;SDS011;17936;52.446;10.840;2023-02-03T03:53:31;14.70;;;7.53;;
31308;SDS011;17936;52.446;10.840;2023-02-03T03:56:01;12.52;;;6.97;;
31308;SDS011;17936;52.446;10.840;2023-02-03T03:58:30;17.25;;;7.30;;
31308;SDS011;17936;52.446;10.840;2023-02-03T04:00:57;11.95;;;7.43;;
31308;SDS011;17936;52.446;10.840;2023-02-03T04:03:48;13.90;;;7.75;;
31308;SDS011;17936;52.446;10.840;2023-02-03T04:06:14;14.55;;;6.95;;
31308;SDS011;17936;52.446;10.840;2023-02-03T04:08:39;16.65;;;7.05;;
31308;SDS011;17936;52.446;10.840;2023-02-03T04:11:05;16.67;;;7.45;;
31308;SDS011;17936;52.446;10.840;2023-02-03T04:13:31;11.10;;;6.93;;
31308;SDS011;17936;52.446;10.840;2023-02-03T04:15:57;16.48;;;7.45;;
31308;SDS011;17936;52.446;10.840;2023-02-03T04:18:22;14.90;;;6.93;;
31308;SDS011;17936;52.446;10.840;2023-02-03T04:20:48;12.25;;;5.38;;
31308;SDS011;17936;52.446;10.840;2023-02-03T04:23:13;13.73;;;6.32;;
31308;SDS011;17936;52.446;10.840;2023-02-03T04:25:39;13.02;;;6.43;;
31308;SDS011;17936;52.446;10.840;2023-02-03T04:28:04;10.93;;;5.95;;
31308;SDS011;17936;52.446;10.840;2023-02-03T04:30:30;14.63;;;6.40;;
31308;SDS011;17936;52.446;10.840;2023-02-03T04:32:56;13.95;;;7.35;;
31308;SDS011;17936;52.446;10.840;2023-02-03T04:35:21;13.68;;;5.90;;
31308;SDS011;17936;52.446;10.840;2023-02-03T04:37:47;11.35;;;5.97;;
31308;SDS011;17936;52.446;10.840;2023-02-03T04:40:12;14.23;;;6.80;;
31308;SDS011;17936;52.446;10.840;2023-02-03T04:42:38;12.85;;;7.03;;
31308;SDS011;17936;52.446;10.840;2023-02-03T04:45:05;15.57;;;5.88;;
31308;SDS011;17936;52.446;10.840;2023-02-03T04:47:32;10.00;;;5.47;;
31308;SDS011;17936;52.446;10.840;2023-02-03T04:49:57;16.23;;;5.75;;
31308;SDS011;17936;52.446;10.840;2023-02-03T04:52:23;15.07;;;5.38;;
31308;SDS011;17936;52.446;10.840;2023-02-03T04:54:49;8.50;;;4.72;;
31308;SDS011;17936;52.446;10.840;2023-02-03T04:57:15;11.55;;;5.88;;
31308;SDS011;17936;52.446;10.840;2023-02-03T04:59:40;12.18;;;5.93;;
31308;SDS011;17936;52.446;10.840;2023-02-03T05:02:06;8.88;;;5.43;;
31308;SDS011;17936;52.446;10.840;2023-02-03T05:04:32;13.27;;;5.30;;
31308;SDS011;17936;52.446;10.840;2023-02-03T05:06:58;11.80;;;5.25;;
31308;SDS011;17936;52.446;10.840;2023-02-03T05:09:24;11.43;;;5.47;;
31308;SDS011;17936;52.446;10.840;2023-02-03T05:11:49;11.48;;;5.32;;
31308;SDS011;17936;52.446;10.840;2023-02-03T05:14:15;10.48;;;5.00;;
31308;SDS011;17936;52.446;10.840;2023-02-03T05:16:40;10.25;;;5.00;;
31308;SDS011;17936;52.446;10.840;2023-02-03T05:19:06;15.75;;;5.57;;
31308;SDS011;17936;52.446;10.840;2023-02-03T05:21:32;11.35;;;5.80;;
31308;SDS011;17936;52.446;10.840;2023-02-03T05:23:58;9.43;;;4.60;;
31308;SDS011;17936;52.446;10.840;2023-02-03T05:26:24;12.73;;;5.30;;
31308;SDS011;17936;52.446;10.840;2023-02-03T05:28:50;10.38;;;4.57;;
31308;SDS011;17936;52.446;10.840;2023-02-03T05:31:15;11.23;;;5.60;;
31308;SDS011;17936;52.446;10.840;2023-02-03T05:33:41;15.63;;;5.65;;
31308;SDS011;17936;52.446;10.840;2023-02-03T05:36:07;15.02;;;3.92;;
31308;SDS011;17936;52.446;10.840;2023-02-03T05:38:33;12.93;;;5.30;;
31308;SDS011;17936;52.446;10.840;2023-02-03T05:40:58;11.32;;;5.30;;
31308;SDS011;17936;52.446;10.840;2023-02-03T05:43:42;9.20;;;4.88;;
31308;SDS011;17936;52.446;10.840;2023-02-03T05:46:08;11.20;;;4.95;;
31308;SDS011;17936;52.446;10.840;2023-02-03T05:48:33;15.30;;;4.82;;
31308;SDS011;17936;52.446;10.840;2023-02-03T05:50:59;12.30;;;5.15;;
31308;SDS011;17936;52.446;10.840;2023-02-03T05:53:24;8.20;;;4.30;;
31308;SDS011;17936;52.446;10.840;2023-02-03T05:55:51;9.38;;;4.60;;
31308;SDS011;17936;52.446;10.840;2023-02-03T05:58:16;7.78;;;3.88;;
31308;SDS011;17936;52.446;10.840;2023-02-03T06:00:42;8.43;;;5.32;;
31308;SDS011;17936;52.446;10.840;2023-02-03T06:03:08;13.27;;;4.03;;
31308;SDS011;17936;52.446;10.840;2023-02-03T06:05:33;11.73;;;5.50;;
31308;SDS011;17936;52.446;10.840;2023-02-03T06:08:01;10.85;;;4.82;;
31308;SDS011;17936;52.446;10.840;2023-02-03T06:10:27;18.02;;;5.60;;
31308;SDS011;17936;52.446;10.840;2023-02-03T06:12:52;10.77;;;5.07;;
31308;SDS011;17936;52.446;10.840;2023-02-03T06:15:18;11.23;;;5.35;;
31308;SDS011;17936;52.446;10.840;2023-02-03T06:17:44;14.00;;;4.50;;
31308;SDS011;17936;52.446;10.840;2023-02-03T06:20:11;13.15;;;4.70;;
31308;SDS011;17936;52.446;10.840;2023-02-03T06:22:38;12.05;;;5.25;;
31308;SDS011;17936;52.446;10.840;2023-02-03T06:25:04;10.32;;;4.55;;
31308;SDS011;17936;52.446;10.840;2023-02-03T06:27:30;12.50;;;5.05;;
31308;SDS011;17936;52.446;10.840;2023-02-03T06:29:55;10.27;;;3.80;;
31308;SDS011;17936;52.446;10.840;2023-02-03T06:32:21;9.68;;;4.20;;
31308;SDS011;17936;52.446;10.840;2023-02-03T06:34:46;8.32;;;4.20;;
31308;SDS011;17936;52.446;10.840;2023-02-03T06:37:12;9.85;;;4.78;;
31308;SDS011;17936;52.446;10.840;2023-02-03T06:39:37;10.75;;;4.60;;
31308;SDS011;17936;52.446;10.840;2023-02-03T06:42:03;8.80;;;3.22;;
31308;SDS011;17936;52.446;10.840;2023-02-03T06:44:29;6.22;;;3.60;;
31308;SDS011;17936;52.446;10.840;2023-02-03T06:46:54;10.88;;;3.70;;
31308;SDS011;17936;52.446;10.840;2023-02-03T06:49:20;7.70;;;2.90;;
31308;SDS011;17936;52.446;10.840;2023-02-03T06:51:46;16.85;;;4.95;;
31308;SDS011;17936;52.446;10.840;2023-02-03T06:54:12;7.90;;;4.07;;
31308;SDS011;17936;52.446;10.840;2023-02-03T06:56:38;9.38;;;4.18;;
31308;SDS011;17936;52.446;10.840;2023-02-03T06:59:03;16.05;;;4.60;;
31308;SDS011;17936;52.446;10.840;2023-02-03T07:01:29;11.65;;;4.25;;
31308;SDS011;17936;52.446;10.840;2023-02-03T07:03:55;8.10;;;3.20;;
31308;SDS011;17936;52.446;10.840;2023-02-03T07:06:26;10.95;;;4.70;;
31308;SDS011;17936;52.446;10.840;2023-02-03T07:08:55;7.88;;;3.13;;
31308;SDS011;17936;52.446;10.840;2023-02-03T07:11:21;9.50;;;4.00;;
31308;SDS011;17936;52.446;10.840;2023-02-03T07:13:47;10.98;;;4.30;;
31308;SDS011;17936;52.446;10.840;2023-02-03T07:16:13;6.70;;;3.22;;
31308;SDS011;17936;52.446;10.840;2023-02-03T07:18:39;9.20;;;3.30;;
31308;SDS011;17936;52.446;10.840;2023-02-03T07:21:05;15.65;;;3.88;;
31308;SDS011;17936;52.446;10.840;2023-02-03T07:23:31;11.30;;;3.42;;
31308;SDS011;17936;52.446;10.840;2023-02-03T07:26:00;11.75;;;3.28;;
31308;SDS011;17936;52.446;10.840;2023-02-03T07:28:28;10.38;;;3.75;;
31308;SDS011;17936;52.446;10.840;2023-02-03T07:30:55;9.15;;;3.22;;
31308;SDS011;17936;52.446;10.840;2023-02-03T07:33:20;4.68;;;3.13;;
31308;SDS011;17936;52.446;10.840;2023-02-03T07:35:52;7.35;;;2.88;;
31308;SDS011;17936;52.446;10.840;2023-02-03T07:40:44;8.85;;;3.28;;
31308;SDS011;17936;52.446;10.840;2023-02-03T07:43:09;7.85;;;3.40;;
31308;SDS011;17936;52.446;10.840;2023-02-03T07:45:35;6.00;;;3.13;;
31308;SDS011;17936;52.446;10.840;2023-02-03T07:48:01;4.68;;;1.67;;
31308;SDS011;17936;52.446;10.840;2023-02-03T07:50:26;5.50;;;2.92;;
31308;SDS011;17936;52.446;10.840;2023-02-03T07:52:52;6.72;;;3.55;;
31308;SDS011;17936;52.446;10.840;2023-02-03T07:55:17;9.77;;;2.95;;
31308;SDS011;17936;52.446;10.840;2023-02-03T07:57:43;5.03;;;3.00;;
31308;SDS011;17936;52.446;10.840;2023-02-03T08:00:10;7.47;;;3.17;;
31308;SDS011;17936;52.446;10.840;2023-02-03T08:02:37;5.55;;;2.70;;
31308;SDS011;17936;52.446;10.840;2023-02-03T08:05:03;5.88;;;2.95;;
31308;SDS011;17936;52.446;10.840;2023-02-03T08:07:29;7.68;;;2.70;;
31308;SDS011;17936;52.446;10.840;2023-02-03T08:09:55;13.93;;;2.85;;
31308;SDS011;17936;52.446;10.840;2023-02-03T08:12:20;6.50;;;2.78;;
31308;SDS011;17936;52.446;10.840;2023-02-03T08:14:46;8.18;;;2.58;;
31308;SDS011;17936;52.446;10.840;2023-02-03T08:17:12;3.75;;;2.05;;
31308;SDS011;17936;52.446;10.840;2023-02-03T08:19:37;5.05;;;2.70;;
31308;SDS011;17936;52.446;10.840;2023-02-03T08:22:03;3.13;;;2.00;;
31308;SDS011;17936;52.446;10.840;2023-02-03T08:24:28;7.45;;;2.70;;
31308;SDS011;17936;52.446;10.840;2023-02-03T08:26:54;3.30;;;2.25;;
31308;SDS011;17936;52.446;10.840;2023-02-03T08:29:19;6.28;;;2.35;;
31308;SDS011;17936;52.446;10.840;2023-02-03T08:31:45;4.50;;;2.45;;
31308;SDS011;17936;52.446;10.840;2023-02-03T08:34:11;2.15;;;1.33;;
31308;SDS011;17936;52.446;10.840;2023-02-03T08:36:36;3.05;;;1.55;;
31308;SDS011;17936;52.446;10.840;2023-02-03T08:39:04;7.28;;;2.40;;
31308;SDS011;17936;52.446;10.840;2023-02-03T08:41:30;7.53;;;2.38;;
31308;SDS011;17936;52.446;10.840;2023-02-03T08:43:57;3.88;;;2.30;;
31308;SDS011;17936;52.446;10.840;2023-02-03T08:46:23;3.78;;;2.30;;
31308;SDS011;17936;52.446;10.840;2023-02-03T08:48:49;6.07;;;2.67;;
31308;SDS011;17936;52.446;10.840;2023-02-03T08:51:15;5.40;;;2.70;;
31308;SDS011;17936;52.446;10.840;2023-02-03T08:53:41;5.90;;;3.67;;
31308;SDS011;17936;52.446;10.840;2023-02-03T08:56:07;5.80;;;3.55;;
31308;SDS011;17936;52.446;10.840;2023-02-03T08:58:34;8.15;;;3.50;;
31308;SDS011;17936;52.446;10.840;2023-02-03T09:01:07;4.85;;;2.55;;
31308;SDS011;17936;52.446;10.840;2023-02-03T09:03:34;7.95;;;3.22;;
31308;SDS011;17936;52.446;10.840;2023-02-03T09:06:00;9.88;;;3.15;;
31308;SDS011;17936;52.446;10.840;2023-02-03T09:08:26;11.35;;;2.70;;
31308;SDS011;17936;52.446;10.840;2023-02-03T09:10:53;6.97;;;2.75;;
31308;SDS011;17936;52.446;10.840;2023-02-03T09:13:18;6.75;;;2.53;;
31308;SDS011;17936;52.446;10.840;2023-02-03T09:15:43;6.40;;;2.95;;
31308;SDS011;17936;52.446;10.840;2023-02-03T09:18:09;8.82;;;3.08;;
31308;SDS011;17936;52.446;10.840;2023-02-03T09:20:34;6.95;;;2.47;;
31308;SDS011;17936;52.446;10.840;2023-02-03T09:23:00;7.25;;;2.80;;
31308;SDS011;17936;52.446;10.840;2023-02-03T09:25:26;6.32;;;2.35;;
31308;SDS011;17936;52.446;10.840;2023-02-03T09:27:51;5.57;;;2.38;;
31308;SDS011;17936;52.446;10.840;2023-02-03T09:30:17;6.03;;;2.40;;
31308;SDS011;17936;52.446;10.840;2023-02-03T09:32:42;6.75;;;2.47;;
31308;SDS011;17936;52.446;10.840;2023-02-03T09:35:12;6.47;;;2.20;;
31308;SDS011;17936;52.446;10.840;2023-02-03T09:37:38;8.18;;;2.40;;
31308;SDS011;17936;52.446;10.840;2023-02-03T09:40:04;7.18;;;2.30;;
31308;SDS011;17936;52.446;10.840;2023-02-03T09:42:36;8.38;;;2.90;;
31308;SDS011;17936;52.446;10.840;2023-02-03T09:45:26;10.68;;;3.47;;
31308;SDS011;17936;52.446;10.840;2023-02-03T09:47:54;9.05;;;2.30;;
31308;SDS011;17936;52.446;10.840;2023-02-03T09:50:25;8.27;;;2.40;;
31308;SDS011;17936;52.446;10.840;2023-02-03T09:52:53;6.10;;;2.10;;
31308;SDS011;17936;52.446;10.840;2023-02-03T09:55:24;7.93;;;1.92;;
31308;SDS011;17936;52.446;10.840;2023-02-03T10:00:48;9.10;;;2.05;;
31308;SDS011;17936;52.446;10.840;2023-02-03T10:03:19;8.57;;;2.13;;
31308;SDS011;17936;52.446;10.840;2023-02-03T10:08:51;8.15;;;1.60;;
31308;SDS011;17936;52.446;10.840;2023-02-03T10:17:40;5.40;;;2.28;;
31308;SDS011;17936;52.446;10.840;2023-02-03T10:20:01;7.18;;;2.13;;
31308;SDS011;17936;52.446;10.840;2023-02-03T10:22:40;10.45;;;2.75;;
31308;SDS011;17936;52.446;10.840;2023-02-03T10:27:38;13.57;;;3.47;;
31308;SDS011;17936;52.446;10.840;2023-02-03T10:30:23;10.90;;;2.45;;
31308;SDS011;17936;52.446;10.840;2023-02-03T10:33:11;10.75;;;2.63;;
31308;SDS011;17936;52.446;10.840;2023-02-03T10:35:50;5.00;;;1.35;;
31308;SDS011;17936;52.446;10.840;2023-02-03T10:38:21;8.43;;;1.60;;
31308;SDS011;17936;52.446;10.840;2023-02-03T10:40:51;7.07;;;1.67;;
31308;SDS011;17936;52.446;10.840;2023-02-03T10:43:17;6.35;;;1.73;;
31308;SDS011;17936;52.446;10.840;2023-02-03T10:46:01;4.90;;;1.25;;
31308;SDS011;17936;52.446;10.840;2023-02-03T10:48:27;3.50;;;0.80;;
31308;SDS011;17936;52.446;10.840;2023-02-03T10:50:53;12.45;;;2.17;;
31308;SDS011;17936;52.446;10.840;2023-02-03T10:56:04;15.10;;;2.35;;
31308;SDS011;17936;52.446;10.840;2023-02-03T10:58:34;16.58;;;2.17;;
31308;SDS011;17936;52.446;10.840;2023-02-03T11:01:12;18.30;;;2.35;;
31308;SDS011;17936;52.446;10.840;2023-02-03T11:03:43;20.13;;;3.13;;
31308;SDS011;17936;52.446;10.840;2023-02-03T11:06:19;17.27;;;1.90;;
31308;SDS011;17936;52.446;10.840;2023-02-03T11:08:46;6.20;;;1.33;;
31308;SDS011;17936;52.446;10.840;2023-02-03T11:11:14;7.07;;;1.98;;
31308;SDS011;17936;52.446;10.840;2023-02-03T11:13:44;9.68;;;1.90;;
31308;SDS011;17936;52.446;10.840;2023-02-03T11:16:13;15.40;;;1.90;;
31308;SDS011;17936;52.446;10.840;2023-02-03T11:18:51;12.30;;;2.13;;
31308;SDS011;17936;52.446;10.840;2023-02-03T11:21:20;18.45;;;2.40;;
31308;SDS011;17936;52.446;10.840;2023-02-03T11:26:22;16.83;;;2.40;;
31308;SDS011;17936;52.446;10.840;2023-02-03T11:28:52;17.42;;;2.45;;
31308;SDS011;17936;52.446;10.840;2023-02-03T11:31:22;12.77;;;2.85;;
31308;SDS011;17936;52.446;10.840;2023-02-03T11:33:51;21.85;;;2.50;;
31308;SDS011;17936;52.446;10.840;2023-02-03T11:36:20;19.55;;;2.50;;
31308;SDS011;17936;52.446;10.840;2023-02-03T11:38:46;21.30;;;3.28;;
31308;SDS011;17936;52.446;10.840;2023-02-03T11:41:17;16.38;;;3.33;;
31308;SDS011;17936;52.446;10.840;2023-02-03T11:43:44;26.63;;;2.88;;
31308;SDS011;17936;52.446;10.840;2023-02-03T11:46:10;26.83;;;3.20;;
31308;SDS011;17936;52.446;10.840;2023-02-03T11:55:02;19.67;;;2.83;;
31308;SDS011;17936;52.446;10.840;2023-02-03T11:57:43;16.30;;;3.15;;
31308;SDS011;17936;52.446;10.840;2023-02-03T12:00:34;21.70;;;2.90;;
31308;SDS011;17936;52.446;10.840;2023-02-03T12:03:17;23.98;;;2.97;;
31308;SDS011;17936;52.446;10.840;2023-02-03T12:08:45;22.15;;;3.47;;
31308;SDS011;17936;52.446;10.840;2023-02-03T12:17:05;25.20;;;2.75;;
31308;SDS011;17936;52.446;10.840;2023-02-03T12:20:02;18.58;;;2.83;;
31308;SDS011;17936;52.446;10.840;2023-02-03T12:30:47;32.65;;;3.50;;
31308;SDS011;17936;52.446;10.840;2023-02-03T12:33:23;14.80;;;2.90;;
31308;SDS011;17936;52.446;10.840;2023-02-03T12:35:55;28.10;;;4.55;;
31308;SDS011;17936;52.446;10.840;2023-02-03T12:41:00;22.55;;;3.80;;
31308;SDS011;17936;52.446;10.840;2023-02-03T12:43:37;23.25;;;3.67;;
31308;SDS011;17936;52.446;10.840;2023-02-03T12:46:15;27.20;;;3.95;;
31308;SDS011;17936;52.446;10.840;2023-02-03T12:51:32;19.63;;;2.83;;
31308;SDS011;17936;52.446;10.840;2023-02-03T12:54:09;21.67;;;3.60;;
31308;SDS011;17936;52.446;10.840;2023-02-03T12:56:57;31.50;;;3.72;;
31308;SDS011;17936;52.446;10.840;2023-02-03T12:59:32;28.20;;;3.60;;
31308;SDS011;17936;52.446;10.840;2023-02-03T13:02:08;18.38;;;3.08;;
31308;SDS011;17936;52.446;10.840;2023-02-03T13:04:51;23.58;;;3.72;;
31308;SDS011;17936;52.446;10.840;2023-02-03T13:10:16;30.58;;;3.25;;
31308;SDS011;17936;52.446;10.840;2023-02-03T13:12:49;20.02;;;3.13;;
31308;SDS011;17936;52.446;10.840;2023-02-03T13:15:38;23.13;;;3.75;;
31308;SDS011;17936;52.446;10.840;2023-02-03T13:18:24;26.38;;;3.55;;
31308;SDS011;17936;52.446;10.840;2023-02-03T13:20:59;27.70;;;3.70;;
31308;SDS011;17936;52.446;10.840;2023-02-03T13:23:25;20.08;;;3.22;;
31308;SDS011;17936;52.446;10.840;2023-02-03T13:42:29;17.38;;;3.17;;
31308;SDS011;17936;52.446;10.840;2023-02-03T13:45:02;20.13;;;3.30;;
31308;SDS011;17936;52.446;10.840;2023-02-03T13:47:43;19.98;;;2.90;;
31308;SDS011;17936;52.446;10.840;2023-02-03T13:52:58;20.40;;;3.17;;
31308;SDS011;17936;52.446;10.840;2023-02-03T13:55:36;19.85;;;3.42;;
31308;SDS011;17936;52.446;10.840;2023-02-03T13:58:17;27.85;;;3.63;;
31308;SDS011;17936;52.446;10.840;2023-02-03T14:05:52;20.83;;;3.78;;
31308;SDS011;17936;52.446;10.840;2023-02-03T14:19:01;17.95;;;2.65;;
31308;SDS011;17936;52.446;10.840;2023-02-03T14:21:27;19.88;;;3.25;;
31308;SDS011;17936;52.446;10.840;2023-02-03T14:24:04;32.78;;;3.15;;
31308;SDS011;17936;52.446;10.840;2023-02-03T14:26:35;14.90;;;3.20;;
31308;SDS011;17936;52.446;10.840;2023-02-03T14:36:55;17.80;;;3.15;;
31308;SDS011;17936;52.446;10.840;2023-02-03T14:39:28;18.55;;;2.85;;
31308;SDS011;17936;52.446;10.840;2023-02-03T14:44:57;16.80;;;2.60;;
31308;SDS011;17936;52.446;10.840;2023-02-03T14:47:47;19.65;;;4.00;;
31308;SDS011;17936;52.446;10.840;2023-02-03T14:53:27;24.97;;;2.90;;
31308;SDS011;17936;52.446;10.840;2023-02-03T14:56:22;30.23;;;3.63;;
31308;SDS011;17936;52.446;10.840;2023-02-03T14:59:36;22.88;;;2.95;;
31308;SDS011;17936;52.446;10.840;2023-02-03T15:02:17;16.60;;;2.65;;
31308;SDS011;17936;52.446;10.840;2023-02-03T15:04:44;19.23;;;2.63;;
31308;SDS011;17936;52.446;10.840;2023-02-03T15:07:33;13.77;;;2.50;;
31308;SDS011;17936;52.446;10.840;2023-02-03T15:10:00;19.50;;;3.03;;
31308;SDS011;17936;52.446;10.840;2023-02-03T15:12:26;13.60;;;3.88;;
31308;SDS011;17936;52.446;10.840;2023-02-03T15:14:53;28.15;;;3.90;;
31308;SDS011;17936;52.446;10.840;2023-02-03T15:17:45;24.52;;;3.22;;
31308;SDS011;17936;52.446;10.840;2023-02-03T15:22:57;22.17;;;3.33;;
31308;SDS011;17936;52.446;10.840;2023-02-03T15:25:23;14.35;;;2.88;;
31308;SDS011;17936;52.446;10.840;2023-02-03T15:27:51;35.33;;;3.63;;
31308;SDS011;17936;52.446;10.840;2023-02-03T15:30:24;19.35;;;3.17;;
31308;SDS011;17936;52.446;10.840;2023-02-03T15:33:05;14.98;;;1.95;;
31308;SDS011;17936;52.446;10.840;2023-02-03T15:35:35;15.63;;;2.65;;
31308;SDS011;17936;52.446;10.840;2023-02-03T15:38:05;18.20;;;3.20;;
31308;SDS011;17936;52.446;10.840;2023-02-03T15:40:40;20.88;;;3.20;;
31308;SDS011;17936;52.446;10.840;2023-02-03T15:43:17;26.10;;;3.53;;
31308;SDS011;17936;52.446;10.840;2023-02-03T15:45:53;16.95;;;2.88;;
31308;SDS011;17936;52.446;10.840;2023-02-03T15:48:55;19.40;;;3.05;;
31308;SDS011;17936;52.446;10.840;2023-02-03T15:51:45;23.73;;;3.50;;
31308;SDS011;17936;52.446;10.840;2023-02-03T15:54:31;23.33;;;3.50;;
31308;SDS011;17936;52.446;10.840;2023-02-03T15:57:21;24.33;;;2.88;;
31308;SDS011;17936;52.446;10.840;2023-02-03T15:59:57;19.33;;;3.28;;
31308;SDS011;17936;52.446;10.840;2023-02-03T16:02:33;18.05;;;3.17;;
31308;SDS011;17936;52.446;10.840;2023-02-03T16:05:05;21.60;;;3.10;;
31308;SDS011;17936;52.446;10.840;2023-02-03T16:07:49;20.20;;;3.53;;
31308;SDS011;17936;52.446;10.840;2023-02-03T16:10:25;20.83;;;3.08;;
31308;SDS011;17936;52.446;10.840;2023-02-03T16:13:09;19.90;;;3.15;;
31308;SDS011;17936;52.446;10.840;2023-02-03T16:18:29;15.00;;;2.40;;
31308;SDS011;17936;52.446;10.840;2023-02-03T16:20:56;26.92;;;3.63;;
31308;SDS011;17936;52.446;10.840;2023-02-03T16:23:23;16.75;;;2.65;;
31308;SDS011;17936;52.446;10.840;2023-02-03T16:26:00;17.30;;;3.30;;
31308;SDS011;17936;52.446;10.840;2023-02-03T16:28:38;23.30;;;3.90;;
31308;SDS011;17936;52.446;10.840;2023-02-03T16:31:22;27.02;;;3.38;;
31308;SDS011;17936;52.446;10.840;2023-02-03T16:34:14;24.00;;;3.55;;
31308;SDS011;17936;52.446;10.840;2023-02-03T16:37:01;24.08;;;3.30;;
31308;SDS011;17936;52.446;10.840;2023-02-03T16:42:38;26.80;;;4.18;;
31308;SDS011;17936;52.446;10.840;2023-02-03T16:45:23;22.42;;;3.42;;
31308;SDS011;17936;52.446;10.840;2023-02-03T16:48:09;24.70;;;3.17;;
31308;SDS011;17936;52.446;10.840;2023-02-03T16:50:54;24.02;;;3.35;;
31308;SDS011;17936;52.446;10.840;2023-02-03T16:53:27;18.55;;;3.30;;
31308;SDS011;17936;52.446;10.840;2023-02-03T16:55:54;22.40;;;3.75;;
31308;SDS011;17936;52.446;10.840;2023-02-03T16:58:22;14.98;;;2.40;;
31308;SDS011;17936;52.446;10.840;2023-02-03T17:00:49;21.58;;;4.00;;
31308;SDS011;17936;52.446;10.840;2023-02-03T17:03:20;12.88;;;2.30;;
31308;SDS011;17936;52.446;10.840;2023-02-03T17:05:47;20.38;;;3.67;;